KOXV

Details ICAO KOXV
Name KNOXVILLE MUNI
Region United States
Timezone America/Chicago (UTC-5.0)
Plans Departing 6
Arriving 9
Stats Elevation 928 ft / 283 m (AMSL)
Location 41.299100° -93.113745°
Runways 1
Magnetic Variation 0.397° E
Sunrise 2018-05-24 10:47:43 UTC / 2018-05-24 05:47:43 Local
Sunset 2018-05-25 01:33:47 UTC / 2018-05-24 20:33:47 Local
Advertisement - Login to hide

Runways

ID Width Length Bearing (true) Bearing (mag) Surface Threshold Offset Overrun Length
15 75 ft / 23 m 4,003 ft / 1,220 m 155.94° 155.54° Concrete 0 ft / 0 m 0 ft / 0 m
33 75 ft / 23 m 4,003 ft / 1,220 m 335.94° 335.54° Concrete 0 ft / 0 m 0 ft / 0 m

Map

Weather


0- 5 10 15 20 25 30 35+ Temperature / ° C

Clouds and Precipitation
Forecast for 2018-05-25 00:00 UTC. Updated 9 minutes ago

Ground ~20,000 ft ~40,000 ft Winds

METAR

KOXV 242315Z AUTO 19012G18KT 10SM CLR 30/17 A2996 RMK AO2

TAF

Not found

Frequencies

Recorded 119.77 MHz AWOS 3
Approach 123.90 MHz DES MOINES APP/DEP
Unicom 122.80 MHz CTAF/UNICOM
Warning: Do not use this data for real-world aviation or navigation. No guarantee of current accuracy is given.